createdAt,value
2023-01-27T00:00:51.129Z,26.40
2023-01-27T00:03:18.592Z,24.23
2023-01-27T00:05:46.905Z,25.30
2023-01-27T00:08:14.707Z,26.10
2023-01-27T00:10:41.934Z,25.60
2023-01-27T00:13:28.384Z,24.38
2023-01-27T00:15:56.218Z,25.70
2023-01-27T00:18:24.015Z,27.15
2023-01-27T00:21:10.715Z,27.05
2023-01-27T00:23:56.506Z,27.15
2023-01-27T00:26:23.712Z,24.67
2023-01-27T00:28:50.943Z,26.58
2023-01-27T00:31:38.025Z,26.20
2023-01-27T00:34:11.951Z,27.08
2023-01-27T00:36:41.297Z,29.60
2023-01-27T00:39:11.013Z,27.65
2023-01-27T00:41:39.898Z,27.70
2023-01-27T00:44:07.579Z,29.58
2023-01-27T00:46:35.096Z,27.15
2023-01-27T00:49:02.215Z,28.13
2023-01-27T00:51:30.719Z,29.10
2023-01-27T00:53:59.465Z,26.27
2023-01-27T00:56:28.376Z,26.38
2023-01-27T00:58:55.892Z,27.10
2023-01-27T01:01:23.736Z,27.45
2023-01-27T01:03:50.955Z,27.80
2023-01-27T01:06:19.234Z,28.30
2023-01-27T01:08:48.986Z,27.92
2023-01-27T01:11:17.618Z,28.98
2023-01-27T01:13:46.153Z,27.83
2023-01-27T01:16:22.501Z,25.20
2023-01-27T01:18:49.800Z,26.85
2023-01-27T01:21:17.181Z,26.90
2023-01-27T01:23:46.297Z,27.15
2023-01-27T01:26:15.379Z,26.45
2023-01-27T01:28:44.763Z,27.88
2023-01-27T01:31:18.143Z,26.65
2023-01-27T01:33:46.061Z,27.13
2023-01-27T01:36:16.279Z,28.95
2023-01-27T01:38:43.500Z,26.92
2023-01-27T01:41:19.856Z,25.00
2023-01-27T01:43:47.495Z,25.95
2023-01-27T01:46:14.658Z,24.45
2023-01-27T01:48:57.581Z,23.25
2023-01-27T01:52:09.781Z,23.63
2023-01-27T01:54:42.201Z,23.50
2023-01-27T01:57:22.259Z,25.10
2023-01-27T02:00:03.548Z,21.63
2023-01-27T02:05:21.989Z,22.55
2023-01-27T02:08:05.095Z,24.00
2023-01-27T02:10:34.203Z,24.95
2023-01-27T02:13:01.721Z,24.77
2023-01-27T02:15:33.225Z,26.00
2023-01-27T02:18:01.826Z,26.05
2023-01-27T02:20:41.577Z,24.70
2023-01-27T02:23:28.018Z,24.25
2023-01-27T02:26:05.471Z,24.63
2023-01-27T02:28:33.522Z,26.42
2023-01-27T02:31:01.223Z,26.35
2023-01-27T02:33:28.586Z,25.02
2023-01-27T02:35:55.591Z,24.70
2023-01-27T02:38:23.680Z,24.00
2023-01-27T02:40:55.325Z,25.63
2023-01-27T02:43:22.469Z,25.33
2023-01-27T02:45:49.631Z,24.90
2023-01-27T02:48:16.844Z,25.38
2023-01-27T02:50:44.075Z,24.05
2023-01-27T02:53:11.645Z,25.77
2023-01-27T02:55:38.845Z,25.42
2023-01-27T02:58:06.978Z,24.65
2023-01-27T03:00:47.180Z,26.45
2023-01-27T03:03:14.324Z,24.38
2023-01-27T03:05:41.903Z,25.55
2023-01-27T03:08:09.226Z,25.45
2023-01-27T03:10:36.592Z,24.48
2023-01-27T03:13:04.079Z,24.10
2023-01-27T03:15:49.693Z,22.73
2023-01-27T03:18:17.502Z,23.25
2023-01-27T03:20:47.067Z,22.98
2023-01-27T03:23:19.181Z,22.63
2023-01-27T03:25:50.050Z,22.95
2023-01-27T03:28:17.420Z,24.52
2023-01-27T03:31:08.128Z,22.60
2023-01-27T03:33:53.351Z,24.20
2023-01-27T03:36:45.413Z,23.60
2023-01-27T03:39:31.399Z,22.55
2023-01-27T03:42:17.038Z,24.45
2023-01-27T03:45:03.314Z,24.10
2023-01-27T03:47:30.534Z,22.17
2023-01-27T03:49:57.772Z,23.70
2023-01-27T03:52:24.873Z,23.75
2023-01-27T03:54:51.944Z,23.83
2023-01-27T03:57:19.119Z,23.25
2023-01-27T03:59:46.192Z,25.27
2023-01-27T04:02:32.125Z,24.50
2023-01-27T04:05:17.587Z,23.38
2023-01-27T04:07:44.672Z,22.85
2023-01-27T04:10:11.887Z,24.08
2023-01-27T04:12:39.010Z,22.83
2023-01-27T04:15:06.743Z,23.85
2023-01-27T04:17:39.128Z,22.52
2023-01-27T04:20:06.766Z,22.73
2023-01-27T04:22:33.918Z,23.80
2023-01-27T04:25:00.978Z,24.42
2023-01-27T04:27:28.185Z,23.80
2023-01-27T04:29:55.284Z,24.05
2023-01-27T04:32:22.417Z,23.65
2023-01-27T04:34:49.558Z,24.13
2023-01-27T04:37:16.644Z,23.55
2023-01-27T04:39:45.905Z,24.27
2023-01-27T04:42:13.107Z,25.10
2023-01-27T04:44:40.414Z,25.95
2023-01-27T04:47:07.610Z,24.13
2023-01-27T04:49:34.677Z,24.70
2023-01-27T04:52:01.765Z,24.90
2023-01-27T04:54:28.795Z,23.98
2023-01-27T04:57:01.399Z,22.67
2023-01-27T04:59:28.604Z,22.02
2023-01-27T05:01:56.051Z,23.20
2023-01-27T05:04:23.278Z,23.65
2023-01-27T05:06:50.342Z,26.80
2023-01-27T05:09:17.583Z,23.58
2023-01-27T05:11:44.780Z,25.17
2023-01-27T05:14:14.094Z,24.30
2023-01-27T05:16:41.345Z,25.40
2023-01-27T05:19:09.452Z,22.05
2023-01-27T05:21:36.659Z,22.58
2023-01-27T05:24:03.904Z,22.67
2023-01-27T05:26:31.040Z,24.30
2023-01-27T05:28:59.083Z,20.52
2023-01-27T05:31:29.278Z,21.42
2023-01-27T05:33:58.518Z,20.40
2023-01-27T05:36:26.788Z,22.80
2023-01-27T05:38:55.092Z,21.45
2023-01-27T05:41:22.999Z,21.38
2023-01-27T05:43:55.277Z,23.90
2023-01-27T05:46:27.759Z,20.10
2023-01-27T05:48:57.013Z,21.17
2023-01-27T05:51:26.033Z,21.50
2023-01-27T05:53:54.108Z,21.67
2023-01-27T05:56:21.952Z,21.40
2023-01-27T05:58:49.488Z,22.48
2023-01-27T06:01:19.300Z,22.02
2023-01-27T06:03:47.063Z,22.00
2023-01-27T06:06:16.344Z,21.75
2023-01-27T06:08:44.164Z,20.10
2023-01-27T06:11:11.687Z,19.75
2023-01-27T06:13:39.851Z,20.50
2023-01-27T06:16:12.389Z,20.85
2023-01-27T06:18:40.323Z,22.50
2023-01-27T06:21:10.104Z,20.75
2023-01-27T06:23:38.087Z,23.90
2023-01-27T06:26:16.651Z,23.02
2023-01-27T06:28:44.286Z,21.27
2023-01-27T06:31:14.265Z,22.45
2023-01-27T06:33:41.811Z,24.75
2023-01-27T06:36:12.130Z,23.38
2023-01-27T06:38:39.445Z,24.45
2023-01-27T06:41:06.767Z,21.48
2023-01-27T06:43:34.255Z,22.67
2023-01-27T06:46:04.383Z,23.08
2023-01-27T06:48:32.648Z,22.33
2023-01-27T06:50:59.984Z,21.77
2023-01-27T06:53:27.628Z,22.63
2023-01-27T06:56:01.658Z,21.60
2023-01-27T06:58:29.921Z,20.55
2023-01-27T07:00:57.808Z,20.25
2023-01-27T07:03:26.126Z,19.55
2023-01-27T07:05:53.854Z,20.52
2023-01-27T07:08:21.033Z,20.20
2023-01-27T07:10:48.181Z,20.77
2023-01-27T07:13:15.899Z,20.23
2023-01-27T07:15:43.294Z,19.95
2023-01-27T07:18:13.895Z,19.98
2023-01-27T07:20:41.707Z,19.80
2023-01-27T07:23:10.133Z,18.17
2023-01-27T07:25:37.296Z,19.60
2023-01-27T07:28:04.623Z,19.48
2023-01-27T07:30:34.053Z,19.48
2023-01-27T07:33:09.573Z,18.42
2023-01-27T07:35:38.193Z,19.40
2023-01-27T07:38:07.103Z,20.27
2023-01-27T07:40:34.966Z,20.02
2023-01-27T07:43:02.711Z,21.85
2023-01-27T07:45:30.626Z,19.92
2023-01-27T07:48:04.955Z,22.08
2023-01-27T07:50:32.178Z,20.55
2023-01-27T07:53:04.012Z,21.15
2023-01-27T07:55:33.164Z,20.23
2023-01-27T07:58:00.516Z,20.33
2023-01-27T08:00:29.213Z,22.48
2023-01-27T08:02:57.932Z,22.00
2023-01-27T08:05:26.108Z,21.95
2023-01-27T08:07:54.762Z,22.02
2023-01-27T08:10:22.719Z,20.88
2023-01-27T08:12:49.868Z,21.90
2023-01-27T08:15:18.970Z,22.92
2023-01-27T08:17:56.574Z,22.50
2023-01-27T08:20:25.993Z,23.42
2023-01-27T08:22:53.334Z,22.05
2023-01-27T08:25:20.617Z,22.13
2023-01-27T08:27:55.659Z,24.48
2023-01-27T08:30:23.306Z,21.75
2023-01-27T08:32:50.506Z,23.38
2023-01-27T08:35:17.862Z,21.15
2023-01-27T08:37:48.461Z,22.30
2023-01-27T08:40:15.924Z,20.30
2023-01-27T08:42:43.056Z,20.45
2023-01-27T08:45:10.533Z,18.52
2023-01-27T08:47:37.612Z,18.88
2023-01-27T08:50:04.857Z,19.70
2023-01-27T08:52:32.017Z,17.90
2023-01-27T08:54:59.214Z,17.52
2023-01-27T08:57:26.569Z,17.55
2023-01-27T08:59:53.630Z,15.80
2023-01-27T09:02:22.570Z,16.60
2023-01-27T09:04:49.720Z,16.88
2023-01-27T09:07:17.596Z,15.63
2023-01-27T09:09:48.732Z,15.65
2023-01-27T09:12:16.215Z,16.77
2023-01-27T09:14:43.400Z,18.48
2023-01-27T09:17:10.641Z,18.17
2023-01-27T09:19:37.621Z,17.27
2023-01-27T09:22:06.040Z,16.58
2023-01-27T09:24:33.312Z,16.17
2023-01-27T09:27:01.174Z,16.67
2023-01-27T09:29:29.496Z,15.23
2023-01-27T09:31:56.744Z,16.17
2023-01-27T09:34:23.877Z,17.50
2023-01-27T09:36:57.782Z,16.63
2023-01-27T09:39:26.449Z,16.83
2023-01-27T09:42:14.684Z,15.77
2023-01-27T09:44:41.744Z,16.10
2023-01-27T09:47:11.785Z,15.48
2023-01-27T09:50:10.907Z,16.38
2023-01-27T09:53:01.642Z,15.60
2023-01-27T09:55:31.634Z,16.58
2023-01-27T09:58:09.266Z,14.77
2023-01-27T10:00:53.360Z,16.80
2023-01-27T10:03:38.842Z,17.45
2023-01-27T10:06:11.484Z,15.25
2023-01-27T10:08:50.741Z,16.30
2023-01-27T10:11:58.843Z,16.87
2023-01-27T10:14:47.393Z,16.63
2023-01-27T10:17:24.438Z,16.45
2023-01-27T10:19:57.423Z,17.42
2023-01-27T10:22:46.567Z,18.63
2023-01-27T10:25:32.672Z,18.23
2023-01-27T10:28:09.911Z,18.15
2023-01-27T10:30:38.538Z,18.00
2023-01-27T10:33:44.013Z,18.50
2023-01-27T10:36:50.549Z,17.77
2023-01-27T10:39:44.364Z,18.50
2023-01-27T10:42:23.404Z,18.55
2023-01-27T10:45:06.122Z,18.40
2023-01-27T10:47:39.140Z,19.15
2023-01-27T10:50:19.900Z,18.30
2023-01-27T10:52:58.275Z,19.00
2023-01-27T10:55:44.005Z,19.20
2023-01-27T10:58:34.345Z,21.00
2023-01-27T11:03:55.056Z,19.20
2023-01-27T11:06:27.571Z,18.85
2023-01-27T11:09:05.693Z,19.63
2023-01-27T11:11:46.693Z,20.15
2023-01-27T11:14:27.752Z,21.30
2023-01-27T11:17:08.426Z,23.17
2023-01-27T11:19:45.109Z,21.75
2023-01-27T11:22:24.480Z,21.92
2023-01-27T11:25:30.033Z,22.07
2023-01-27T11:28:31.439Z,21.23
2023-01-27T11:31:14.297Z,20.17
2023-01-27T11:34:11.002Z,20.27
2023-01-27T11:36:38.246Z,20.67
2023-01-27T11:39:06.938Z,21.65
2023-01-27T11:41:38.920Z,21.35
2023-01-27T11:44:22.469Z,22.98
2023-01-27T11:46:51.060Z,22.30
2023-01-27T11:49:28.707Z,21.48
2023-01-27T11:52:11.354Z,21.83
2023-01-27T11:54:47.099Z,22.25
2023-01-27T11:57:22.584Z,22.45
2023-01-27T11:59:55.772Z,20.00
2023-01-27T12:02:44.871Z,22.38
2023-01-27T12:05:19.306Z,21.05
2023-01-27T12:07:56.568Z,19.63
2023-01-27T12:10:35.443Z,21.33
2023-01-27T12:13:10.193Z,21.30
2023-01-27T12:15:47.360Z,21.13
2023-01-27T12:18:15.802Z,21.02
2023-01-27T12:20:49.554Z,20.48
2023-01-27T12:23:19.456Z,21.80
2023-01-27T12:25:51.159Z,22.92
2023-01-27T12:28:52.432Z,20.35
2023-01-27T12:31:30.397Z,21.23
2023-01-27T12:34:13.539Z,22.27
2023-01-27T12:36:43.598Z,22.15
2023-01-27T12:39:57.227Z,22.40
2023-01-27T12:42:43.025Z,19.73
2023-01-27T12:45:31.344Z,21.88
2023-01-27T12:48:13.039Z,21.92
2023-01-27T12:50:42.215Z,21.55
2023-01-27T12:53:17.629Z,21.70
2023-01-27T12:56:00.283Z,24.98
2023-01-27T12:58:40.586Z,22.70
2023-01-27T13:01:34.140Z,22.95
2023-01-27T13:04:03.935Z,24.42
2023-01-27T13:06:37.647Z,23.55
2023-01-27T13:09:05.354Z,23.45
2023-01-27T13:11:39.777Z,21.55
2023-01-27T13:14:18.015Z,21.33
2023-01-27T13:16:53.288Z,21.23
2023-01-27T13:19:23.195Z,21.60
2023-01-27T13:21:53.537Z,21.80
2023-01-27T13:24:29.661Z,20.00
2023-01-27T13:26:57.957Z,19.42
2023-01-27T13:29:30.748Z,22.40
2023-01-27T13:32:11.827Z,20.10
2023-01-27T13:34:45.978Z,20.08
2023-01-27T13:37:38.005Z,20.05
2023-01-27T13:40:32.343Z,20.23
2023-01-27T13:43:24.921Z,17.77
2023-01-27T13:46:00.502Z,18.92
2023-01-27T13:48:33.473Z,19.60
2023-01-27T13:51:03.740Z,19.42
2023-01-27T13:53:31.101Z,19.00
2023-01-27T13:56:37.291Z,19.88
2023-01-27T13:59:13.155Z,20.65
2023-01-27T14:01:47.019Z,20.42
2023-01-27T14:04:32.665Z,20.00
2023-01-27T14:07:22.740Z,19.60
2023-01-27T14:09:59.052Z,21.10
2023-01-27T14:13:04.391Z,22.50
2023-01-27T14:15:40.581Z,20.63
2023-01-27T14:18:27.831Z,20.92
2023-01-27T14:21:13.223Z,23.23
2023-01-27T14:24:01.369Z,22.73
2023-01-27T14:26:56.634Z,22.25
2023-01-27T14:29:54.795Z,23.52
2023-01-27T14:32:34.202Z,22.50
2023-01-27T14:35:32.137Z,24.35
2023-01-27T14:38:23.427Z,22.42
2023-01-27T14:41:21.434Z,22.95
2023-01-27T14:43:59.876Z,23.23
2023-01-27T14:46:44.885Z,23.92
2023-01-27T14:49:32.152Z,21.70
2023-01-27T14:52:12.426Z,22.13
2023-01-27T14:55:18.021Z,21.50
2023-01-27T14:58:23.179Z,22.65
2023-01-27T15:01:14.857Z,20.45
2023-01-27T15:04:03.248Z,20.17
2023-01-27T15:06:38.133Z,19.45
2023-01-27T15:09:30.271Z,19.30
2023-01-27T15:12:16.738Z,18.02
2023-01-27T15:14:49.622Z,19.65
2023-01-27T15:17:37.850Z,18.35
2023-01-27T15:20:30.835Z,19.60
2023-01-27T15:23:40.302Z,18.60
2023-01-27T15:26:09.979Z,17.70
2023-01-27T15:28:40.274Z,15.55
2023-01-27T15:31:24.298Z,15.63
2023-01-27T15:34:03.715Z,14.13
2023-01-27T15:36:58.901Z,12.10
2023-01-27T15:39:40.494Z,11.68
2023-01-27T15:42:11.558Z,12.13
2023-01-27T15:44:41.710Z,10.75
2023-01-27T15:49:52.058Z,9.38
2023-01-27T15:52:51.526Z,11.23
2023-01-27T15:55:26.128Z,11.10
2023-01-27T15:58:04.694Z,9.43
2023-01-27T16:00:38.290Z,8.65
2023-01-27T16:03:19.800Z,8.13
2023-01-27T16:05:52.432Z,8.18
2023-01-27T16:08:20.636Z,7.03
2023-01-27T16:10:47.832Z,6.47
2023-01-27T16:13:26.500Z,5.78
2023-01-27T16:16:19.883Z,6.07
2023-01-27T16:19:11.099Z,5.45
2023-01-27T16:21:51.413Z,5.57
2023-01-27T16:27:07.603Z,4.75
2023-01-27T16:29:47.586Z,4.80
2023-01-27T16:32:20.908Z,4.78
2023-01-27T16:34:54.463Z,4.50
2023-01-27T16:37:28.075Z,4.10
2023-01-27T16:39:55.177Z,4.43
2023-01-27T16:42:30.937Z,4.88
2023-01-27T16:45:02.644Z,4.45
2023-01-27T16:47:44.055Z,4.75
2023-01-27T16:50:36.196Z,5.45
2023-01-27T16:53:05.840Z,4.68
2023-01-27T16:55:32.989Z,4.95
2023-01-27T16:58:01.874Z,4.55
2023-01-27T17:00:32.528Z,5.60
2023-01-27T17:03:03.956Z,4.82
2023-01-27T17:05:31.360Z,5.22
2023-01-27T17:08:30.627Z,5.63
2023-01-27T17:11:05.152Z,6.37
2023-01-27T17:13:44.669Z,5.47
2023-01-27T17:16:22.478Z,4.63
2023-01-27T17:18:52.919Z,5.00
2023-01-27T17:21:48.475Z,5.43
2023-01-27T17:24:17.782Z,7.28
2023-01-27T17:26:48.351Z,6.30
2023-01-27T17:29:20.111Z,10.10
2023-01-27T17:31:47.820Z,5.18
2023-01-27T17:34:19.544Z,7.65
2023-01-27T17:37:15.339Z,3.28
2023-01-27T17:39:43.558Z,2.72
2023-01-27T17:42:15.871Z,7.25
2023-01-27T17:44:44.215Z,9.63
2023-01-27T17:47:18.505Z,2.53
2023-01-27T17:49:48.437Z,7.63
2023-01-27T17:52:25.101Z,2.53
2023-01-27T17:54:52.578Z,3.75
2023-01-27T17:57:37.231Z,2.63
2023-01-27T18:00:12.687Z,2.60
2023-01-27T18:02:45.514Z,2.58
2023-01-27T18:05:21.004Z,3.30
2023-01-27T18:07:48.783Z,2.80
2023-01-27T18:10:28.034Z,3.17
2023-01-27T18:12:55.334Z,2.93
2023-01-27T18:15:37.585Z,2.97
2023-01-27T18:18:26.305Z,2.97
2023-01-27T18:21:08.426Z,2.92
2023-01-27T18:23:36.522Z,4.05
2023-01-27T18:26:42.520Z,3.30
2023-01-27T18:29:22.914Z,3.35
2023-01-27T18:32:10.426Z,3.17
2023-01-27T18:34:46.479Z,2.83
2023-01-27T18:37:25.334Z,3.38
2023-01-27T18:39:52.858Z,2.85
2023-01-27T18:42:21.589Z,3.53
2023-01-27T18:44:53.513Z,3.30
2023-01-27T18:47:20.639Z,3.30
2023-01-27T18:49:57.975Z,3.42
2023-01-27T18:52:25.415Z,3.67
2023-01-27T18:54:58.802Z,3.40
2023-01-27T18:57:25.902Z,3.38
2023-01-27T18:59:53.068Z,3.95
2023-01-27T19:02:20.804Z,3.05
2023-01-27T19:04:48.273Z,4.63
2023-01-27T19:07:17.972Z,4.40
2023-01-27T19:09:46.988Z,5.03
2023-01-27T19:12:14.265Z,5.15
2023-01-27T19:14:42.149Z,5.25
2023-01-27T19:17:24.415Z,4.90
2023-01-27T19:19:51.766Z,4.63
2023-01-27T19:22:20.905Z,4.60
2023-01-27T19:24:48.811Z,3.90
2023-01-27T19:27:17.950Z,4.03
2023-01-27T19:29:45.225Z,4.43
2023-01-27T19:32:14.602Z,4.18
2023-01-27T19:34:42.034Z,3.70
2023-01-27T19:37:19.181Z,4.30
2023-01-27T19:39:47.040Z,10.32
2023-01-27T19:42:16.042Z,8.05
2023-01-27T19:44:43.343Z,4.10
2023-01-27T19:47:12.589Z,4.25
2023-01-27T19:49:40.633Z,5.68
2023-01-27T19:52:07.956Z,3.88
2023-01-27T19:54:35.302Z,4.43
2023-01-27T19:57:02.509Z,6.68
2023-01-27T19:59:29.643Z,4.35
2023-01-27T20:01:57.200Z,3.60
2023-01-27T20:04:24.497Z,3.90
2023-01-27T20:06:51.645Z,3.05
2023-01-27T20:09:21.590Z,3.35
2023-01-27T20:11:48.741Z,2.40
2023-01-27T20:14:26.073Z,2.30
2023-01-27T20:16:53.270Z,3.15
2023-01-27T20:19:20.425Z,2.10
2023-01-27T20:21:47.629Z,2.25
2023-01-27T20:24:19.457Z,2.50
2023-01-27T20:26:47.061Z,2.85
2023-01-27T20:29:14.427Z,3.42
2023-01-27T20:31:42.179Z,3.20
2023-01-27T20:34:09.453Z,3.55
2023-01-27T20:36:36.675Z,3.10
2023-01-27T20:39:04.101Z,3.33
2023-01-27T20:41:31.300Z,3.20
2023-01-27T20:44:00.705Z,3.20
2023-01-27T20:46:29.253Z,3.55
2023-01-27T20:48:58.373Z,3.28
2023-01-27T20:51:25.491Z,3.97
2023-01-27T20:53:52.757Z,3.97
2023-01-27T20:56:23.017Z,3.42
2023-01-27T20:58:50.926Z,3.63
2023-01-27T21:01:20.639Z,4.10
2023-01-27T21:03:48.437Z,4.20
2023-01-27T21:06:17.939Z,4.57
2023-01-27T21:08:45.090Z,4.72
2023-01-27T21:11:13.235Z,4.53
2023-01-27T21:13:40.470Z,4.25
2023-01-27T21:16:08.603Z,4.60
2023-01-27T21:18:36.804Z,4.68
2023-01-27T21:21:04.810Z,3.88
2023-01-27T21:23:33.905Z,4.45
2023-01-27T21:26:11.866Z,4.30
2023-01-27T21:28:38.995Z,4.47
2023-01-27T21:31:12.010Z,3.70
2023-01-27T21:33:40.886Z,5.05
2023-01-27T21:36:10.761Z,4.10
2023-01-27T21:41:14.314Z,3.70
2023-01-27T21:43:59.783Z,3.78
2023-01-27T21:46:26.868Z,6.00
2023-01-27T21:48:54.023Z,4.00
2023-01-27T21:51:21.863Z,4.07
2023-01-27T21:53:49.007Z,4.03
2023-01-27T21:56:16.192Z,4.75
2023-01-27T21:58:43.259Z,4.22
2023-01-27T22:01:10.969Z,5.72
2023-01-27T22:03:38.590Z,4.18
2023-01-27T22:06:07.299Z,4.15
2023-01-27T22:08:35.200Z,4.20
2023-01-27T22:11:06.690Z,3.95
2023-01-27T22:13:34.168Z,4.43
2023-01-27T22:16:02.251Z,4.97
2023-01-27T22:18:29.968Z,4.22
2023-01-27T22:21:00.782Z,4.63
2023-01-27T22:23:28.006Z,5.30
2023-01-27T22:25:55.229Z,4.63
2023-01-27T22:28:26.886Z,6.68
2023-01-27T22:30:54.714Z,5.80
2023-01-27T22:33:21.919Z,6.20
2023-01-27T22:35:49.050Z,6.00
2023-01-27T22:38:16.202Z,7.07
2023-01-27T22:40:43.330Z,5.78
2023-01-27T22:43:10.902Z,6.50
2023-01-27T22:45:39.132Z,6.68
2023-01-27T22:48:06.234Z,5.13
2023-01-27T22:50:33.273Z,4.80
2023-01-27T22:53:00.470Z,5.43
2023-01-27T22:55:27.494Z,5.30
2023-01-27T22:57:54.600Z,6.20
2023-01-27T23:00:21.748Z,6.93
2023-01-27T23:02:48.993Z,5.38
2023-01-27T23:05:16.554Z,6.22
2023-01-27T23:07:43.771Z,4.97
2023-01-27T23:10:11.277Z,5.07
2023-01-27T23:12:38.422Z,5.65
2023-01-27T23:15:06.195Z,6.68
2023-01-27T23:17:33.325Z,5.07
2023-01-27T23:20:00.395Z,4.55
2023-01-27T23:22:27.529Z,5.22
2023-01-27T23:24:54.605Z,4.50
2023-01-27T23:27:21.793Z,6.18
2023-01-27T23:29:48.903Z,5.22
2023-01-27T23:32:16.014Z,5.88
2023-01-27T23:34:43.147Z,5.55
2023-01-27T23:37:10.283Z,4.78
2023-01-27T23:39:37.428Z,7.00
2023-01-27T23:42:04.693Z,5.00
2023-01-27T23:44:31.716Z,6.13
2023-01-27T23:46:58.841Z,5.35
2023-01-27T23:49:25.891Z,6.22
2023-01-27T23:51:53.056Z,5.10
2023-01-27T23:54:20.095Z,4.85
2023-01-27T23:56:47.226Z,5.13
2023-01-27T23:59:14.384Z,5.78
